createdAt,value
2019-06-20T00:00:49.911Z,20.23
2019-06-20T00:03:18.290Z,20.43
2019-06-20T00:05:45.029Z,18.60
2019-06-20T00:08:11.851Z,19.00
2019-06-20T00:10:38.590Z,17.60
2019-06-20T00:13:05.307Z,18.90
2019-06-20T00:15:32.830Z,20.15
2019-06-20T00:17:59.561Z,18.73
2019-06-20T00:20:26.331Z,19.30
2019-06-20T00:22:53.345Z,18.62
2019-06-20T00:25:20.092Z,20.55
2019-06-20T00:27:47.099Z,17.20
2019-06-20T00:30:14.566Z,22.32
2019-06-20T00:32:41.231Z,19.98
2019-06-20T00:35:08.393Z,16.37
2019-06-20T00:37:35.035Z,18.00
2019-06-20T00:40:02.732Z,19.10
2019-06-20T00:42:29.642Z,19.17
2019-06-20T00:44:57.112Z,18.55
2019-06-20T00:47:23.851Z,19.20
2019-06-20T00:49:50.568Z,22.50
2019-06-20T00:52:17.258Z,17.85
2019-06-20T00:54:43.936Z,20.05
2019-06-20T00:57:10.758Z,18.82
2019-06-20T00:59:37.512Z,20.80
2019-06-20T01:02:04.253Z,19.87
2019-06-20T01:04:31.092Z,21.05
2019-06-20T01:06:57.952Z,22.42
2019-06-20T01:09:24.733Z,20.72
2019-06-20T01:11:51.530Z,20.52
2019-06-20T01:14:18.213Z,23.50
2019-06-20T01:16:44.970Z,19.00
2019-06-20T01:19:11.683Z,20.72
2019-06-20T01:21:38.508Z,19.15
2019-06-20T01:24:05.165Z,19.12
2019-06-20T01:26:31.834Z,19.42
2019-06-20T01:28:58.561Z,17.12
2019-06-20T01:31:25.307Z,19.73
2019-06-20T01:33:51.989Z,18.23
2019-06-20T01:36:18.762Z,17.95
2019-06-20T01:38:45.451Z,21.10
2019-06-20T01:41:12.170Z,24.90
2019-06-20T01:43:50.155Z,18.35
2019-06-20T01:46:07.533Z,19.07
2019-06-20T01:48:34.274Z,19.95
2019-06-20T01:51:01.036Z,21.48
2019-06-20T01:53:27.738Z,20.12
2019-06-20T01:55:54.737Z,19.30
2019-06-20T01:58:21.490Z,18.62
2019-06-20T02:00:49.271Z,17.40
2019-06-20T02:03:16.443Z,22.50
2019-06-20T02:05:43.793Z,19.67
2019-06-20T02:08:10.435Z,16.90
2019-06-20T02:10:37.175Z,20.80
2019-06-20T02:13:03.943Z,21.93
2019-06-20T02:15:30.928Z,22.75
2019-06-20T02:17:57.693Z,17.57
2019-06-20T02:20:33.237Z,20.43
2019-06-20T02:23:00.088Z,19.05
2019-06-20T02:25:26.842Z,18.82
2019-06-20T02:27:53.638Z,19.98
2019-06-20T02:30:21.472Z,23.35
2019-06-20T02:32:48.253Z,26.07
2019-06-20T02:35:15.132Z,19.02
2019-06-20T02:37:41.855Z,20.97
2019-06-20T02:40:09.087Z,20.82
2019-06-20T02:42:36.047Z,26.25
2019-06-20T02:45:04.644Z,19.27
2019-06-20T02:47:31.352Z,19.70
2019-06-20T02:49:58.111Z,20.68
2019-06-20T02:52:25.280Z,20.48
2019-06-20T02:54:51.977Z,20.37
2019-06-20T02:57:18.733Z,21.65
2019-06-20T02:59:45.382Z,21.87
2019-06-20T03:02:12.153Z,23.20
2019-06-20T03:04:38.991Z,20.02
2019-06-20T03:07:05.741Z,21.48
2019-06-20T03:09:32.614Z,22.98
2019-06-20T03:11:59.340Z,23.30
2019-06-20T03:14:26.114Z,21.68
2019-06-20T03:16:52.855Z,23.40
2019-06-20T03:19:19.491Z,23.02
2019-06-20T03:21:46.496Z,24.12
2019-06-20T03:24:13.232Z,25.20
2019-06-20T03:26:39.930Z,22.62
2019-06-20T03:29:06.675Z,24.27
2019-06-20T03:31:33.382Z,21.20
2019-06-20T03:34:00.084Z,20.62
2019-06-20T03:36:26.771Z,22.60
2019-06-20T03:38:53.456Z,22.50
2019-06-20T03:41:20.129Z,20.40
2019-06-20T03:43:46.952Z,21.77
2019-06-20T03:46:13.586Z,24.00
2019-06-20T03:48:40.290Z,20.80
2019-06-20T03:51:06.943Z,20.75
2019-06-20T03:53:33.642Z,21.52
2019-06-20T03:56:00.418Z,26.48
2019-06-20T03:58:27.109Z,42.62
2019-06-20T04:00:53.826Z,22.80
2019-06-20T04:03:20.692Z,25.02
2019-06-20T04:05:47.371Z,22.40
2019-06-20T04:08:14.033Z,23.05
2019-06-20T04:10:40.697Z,23.20
2019-06-20T04:13:07.510Z,23.38
2019-06-20T04:15:34.235Z,21.62
2019-06-20T04:18:00.913Z,23.35
2019-06-20T04:20:28.642Z,22.70
2019-06-20T04:22:55.351Z,21.93
2019-06-20T04:25:21.997Z,23.70
2019-06-20T04:27:48.847Z,23.52
2019-06-20T04:30:16.484Z,22.80
2019-06-20T04:32:44.350Z,22.93
2019-06-20T04:35:10.999Z,21.70
2019-06-20T04:37:37.667Z,25.80
2019-06-20T04:40:06.341Z,20.90
2019-06-20T04:42:33.277Z,21.95
2019-06-20T04:45:01.819Z,22.37
2019-06-20T04:47:28.634Z,23.50
2019-06-20T04:49:55.350Z,24.67
2019-06-20T04:52:22.059Z,21.65
2019-06-20T04:54:48.735Z,21.48
2019-06-20T04:57:15.441Z,33.13
2019-06-20T04:59:42.127Z,21.42
2019-06-20T05:02:08.862Z,16.95
2019-06-20T05:04:35.556Z,20.02
2019-06-20T05:07:08.722Z,24.05
2019-06-20T05:09:35.366Z,25.50
2019-06-20T05:12:02.085Z,17.30
2019-06-20T05:14:29.765Z,15.10
2019-06-20T05:16:56.725Z,19.48
2019-06-20T05:19:23.420Z,20.17
2019-06-20T05:21:50.060Z,16.60
2019-06-20T05:24:16.937Z,16.62
2019-06-20T05:26:45.920Z,19.10
2019-06-20T05:29:12.567Z,15.00
2019-06-20T05:31:39.241Z,17.20
2019-06-20T05:34:05.901Z,15.83
2019-06-20T05:36:32.627Z,16.07
2019-06-20T05:38:59.407Z,15.72
2019-06-20T05:41:27.191Z,16.20
2019-06-20T05:43:53.904Z,15.95
2019-06-20T05:46:20.705Z,14.98
2019-06-20T05:48:47.374Z,16.62
2019-06-20T05:51:14.296Z,16.10
2019-06-20T05:53:40.879Z,15.58
2019-06-20T05:56:08.720Z,21.27
2019-06-20T05:58:35.552Z,16.90
2019-06-20T06:01:02.231Z,16.48
2019-06-20T06:03:28.911Z,16.40
2019-06-20T06:05:55.772Z,16.87
2019-06-20T06:08:22.553Z,18.50
2019-06-20T06:10:49.332Z,15.98
2019-06-20T06:13:16.112Z,15.15
2019-06-20T06:15:42.831Z,15.68
2019-06-20T06:18:09.598Z,16.30
2019-06-20T18:20:08.207Z,16.27
2019-06-20T18:22:36.146Z,15.03
2019-06-20T18:25:05.614Z,15.20
2019-06-20T18:27:32.346Z,14.70
2019-06-20T18:29:59.106Z,14.30
2019-06-20T18:32:25.928Z,16.50
2019-06-20T18:35:01.735Z,12.50
2019-06-20T18:37:31.092Z,15.68
2019-06-20T18:39:49.859Z,13.00
2019-06-20T18:42:16.611Z,14.38
2019-06-20T18:44:43.344Z,15.58
2019-06-20T18:47:09.991Z,15.50
2019-06-20T18:49:36.813Z,13.22
2019-06-20T18:52:03.686Z,16.02
2019-06-20T18:54:30.344Z,13.28
2019-06-20T18:56:57.192Z,17.32
2019-06-20T18:59:23.893Z,16.00
2019-06-20T19:01:50.659Z,17.00
2019-06-20T19:04:17.281Z,17.10
2019-06-20T19:06:43.998Z,13.98
2019-06-20T19:09:10.705Z,15.13
2019-06-20T19:11:37.813Z,13.55
2019-06-20T19:14:04.593Z,17.92
2019-06-20T19:16:31.249Z,14.25
2019-06-20T19:18:57.987Z,15.98
2019-06-20T19:21:24.686Z,14.13
2019-06-20T19:23:55.204Z,17.62
2019-06-20T19:26:20.467Z,16.87
2019-06-20T19:28:47.178Z,16.40
2019-06-20T19:31:13.978Z,20.20
2019-06-20T19:33:40.647Z,15.90
2019-06-20T19:36:07.324Z,18.95
2019-06-20T19:38:34.114Z,16.37
2019-06-20T19:41:00.855Z,15.85
2019-06-20T19:43:27.556Z,21.33
2019-06-20T19:45:54.291Z,13.90
2019-06-20T19:48:20.960Z,18.15
2019-06-20T19:50:47.924Z,17.57
2019-06-20T19:53:14.898Z,14.58
2019-06-20T19:55:42.038Z,18.15
2019-06-20T19:58:08.686Z,19.10
2019-06-20T20:00:35.614Z,16.20
2019-06-20T20:03:02.594Z,17.45
2019-06-20T20:05:29.441Z,14.20
2019-06-20T20:07:56.439Z,15.40
2019-06-20T20:10:32.834Z,14.50
2019-06-20T20:12:59.516Z,19.27
2019-06-20T20:15:26.188Z,19.52
2019-06-20T20:17:52.862Z,18.12
2019-06-20T20:20:19.799Z,14.98
2019-06-20T20:22:46.485Z,17.73
2019-06-20T20:25:13.378Z,14.15
2019-06-20T20:27:40.193Z,15.43
2019-06-20T20:30:09.195Z,16.55
2019-06-20T20:32:35.864Z,17.90
2019-06-20T20:35:03.055Z,15.03
2019-06-20T20:37:29.691Z,18.20
2019-06-20T20:39:56.342Z,15.15
2019-06-20T20:42:23.030Z,13.83
2019-06-20T20:44:49.764Z,16.67
2019-06-20T20:47:16.431Z,17.45
2019-06-20T20:49:43.117Z,14.20
2019-06-20T20:52:09.765Z,17.48
2019-06-20T20:54:36.507Z,15.43
2019-06-20T20:57:03.513Z,14.98
2019-06-20T20:59:30.431Z,17.70
2019-06-20T21:01:57.112Z,15.00
2019-06-20T21:04:23.991Z,16.37
2019-06-20T21:06:50.626Z,17.80
2019-06-20T21:09:17.271Z,14.05
2019-06-20T21:11:43.908Z,14.10
2019-06-20T21:14:10.786Z,16.97
2019-06-20T21:16:37.433Z,16.77
2019-06-20T21:19:04.452Z,15.20
2019-06-20T21:21:31.098Z,14.98
2019-06-20T21:23:57.853Z,13.93
2019-06-20T21:26:24.679Z,15.95
2019-06-20T21:28:51.515Z,15.88
2019-06-20T21:31:18.180Z,13.48
2019-06-20T21:33:44.986Z,15.15
2019-06-20T21:36:11.770Z,17.30
2019-06-20T21:38:38.488Z,14.25
2019-06-20T21:41:05.148Z,14.85
2019-06-20T21:43:31.910Z,19.23
2019-06-20T21:45:58.794Z,15.08
2019-06-20T21:48:25.471Z,13.72
2019-06-20T21:50:52.212Z,13.95
2019-06-20T21:53:18.960Z,13.48
2019-06-20T21:55:45.709Z,15.53
2019-06-20T21:58:12.498Z,12.88
2019-06-20T22:00:45.976Z,14.20
2019-06-20T22:03:13.696Z,16.40
2019-06-20T22:05:40.465Z,15.53
2019-06-20T22:08:07.536Z,15.13
2019-06-20T22:10:34.369Z,15.08
2019-06-20T22:13:01.107Z,15.83
2019-06-20T22:15:28.050Z,14.98
2019-06-20T22:17:54.902Z,15.53
2019-06-20T22:20:21.679Z,16.65
2019-06-20T22:22:48.376Z,15.72
2019-06-20T22:25:15.769Z,14.43
2019-06-20T22:27:42.488Z,17.05
2019-06-20T22:30:12.740Z,16.25
2019-06-20T22:32:39.472Z,14.00
2019-06-20T22:35:07.126Z,13.68
2019-06-20T22:37:33.833Z,13.35
2019-06-20T22:40:00.572Z,16.07
2019-06-20T22:42:27.342Z,16.07
2019-06-20T22:44:54.001Z,15.15
2019-06-20T22:47:21.665Z,15.55
2019-06-20T22:49:48.350Z,13.22
2019-06-20T22:52:15.156Z,14.45
2019-06-20T22:54:41.906Z,14.63
2019-06-20T22:57:08.672Z,13.75
2019-06-20T22:59:35.348Z,14.90
2019-06-20T23:02:02.241Z,18.87
2019-06-20T23:04:29.037Z,15.53
2019-06-20T23:06:57.028Z,16.70
2019-06-20T23:09:27.141Z,17.80
2019-06-20T23:11:52.711Z,18.07
2019-06-20T23:14:19.366Z,21.00
2019-06-20T23:16:46.052Z,16.73
2019-06-20T23:19:12.726Z,16.10
2019-06-20T23:21:39.471Z,17.05
2019-06-20T23:24:06.218Z,16.17
2019-06-20T23:26:32.922Z,17.85
2019-06-20T23:29:18.402Z,14.78
2019-06-20T23:31:45.192Z,17.20
2019-06-20T23:34:12.970Z,18.02
2019-06-20T23:36:39.631Z,17.73
2019-06-20T23:39:06.388Z,16.87
2019-06-20T23:41:33.076Z,16.50
2019-06-20T23:43:59.748Z,18.20
2019-06-20T23:46:26.432Z,16.97
2019-06-20T23:48:53.173Z,17.50
2019-06-20T23:51:25.537Z,17.07
2019-06-20T23:53:50.570Z,18.23
2019-06-20T23:56:20.229Z,21.35
2019-06-20T23:58:46.903Z,16.80
